createdAt,value
2018-05-09T00:00:53.179Z,14.50
2018-05-09T00:03:21.642Z,14.50
2018-05-09T00:05:49.344Z,14.50
2018-05-09T00:08:17.842Z,14.40
2018-05-09T00:10:45.520Z,14.30
2018-05-09T00:13:13.223Z,14.30
2018-05-09T00:15:40.924Z,14.30
2018-05-09T00:18:08.631Z,14.30
2018-05-09T00:20:36.329Z,14.30
2018-05-09T00:23:05.206Z,14.30
2018-05-09T00:25:32.860Z,14.30
2018-05-09T00:28:00.950Z,14.40
2018-05-09T00:30:28.617Z,14.40
2018-05-09T00:32:56.324Z,14.40
2018-05-09T00:35:24.023Z,14.40
2018-05-09T00:37:51.779Z,14.50
2018-05-09T00:40:19.502Z,14.60
2018-05-09T00:42:47.196Z,14.70
2018-05-09T00:45:14.895Z,14.80
2018-05-09T00:47:42.614Z,14.80
2018-05-09T00:50:10.370Z,14.80
2018-05-09T00:52:38.445Z,14.80
2018-05-09T00:55:06.117Z,14.80
2018-05-09T00:57:33.856Z,14.70
2018-05-09T01:00:02.302Z,14.60
2018-05-09T01:02:30.012Z,14.50
2018-05-09T01:04:57.719Z,14.60
2018-05-09T01:07:25.522Z,14.50
2018-05-09T01:09:53.966Z,14.20
2018-05-09T01:12:21.696Z,14.20
2018-05-09T01:14:49.413Z,14.20
2018-05-09T01:17:17.922Z,14.00
2018-05-09T01:19:46.385Z,13.90
2018-05-09T01:22:14.880Z,13.80
2018-05-09T01:24:42.622Z,13.70
2018-05-09T01:27:10.327Z,13.60
2018-05-09T01:29:38.363Z,13.60
2018-05-09T01:32:06.783Z,13.40
2018-05-09T01:34:34.479Z,13.40
2018-05-09T01:37:02.593Z,13.40
2018-05-09T01:39:30.282Z,13.40
2018-05-09T01:41:58.724Z,13.40
2018-05-09T01:44:26.430Z,13.50
2018-05-09T01:46:54.132Z,13.50
2018-05-09T01:49:21.824Z,13.40
2018-05-09T01:51:50.306Z,13.30
2018-05-09T01:54:18.053Z,13.30
2018-05-09T01:56:46.542Z,13.40
2018-05-09T01:59:14.260Z,13.40
2018-05-09T02:01:42.008Z,13.50
2018-05-09T02:04:09.730Z,13.50
2018-05-09T02:06:37.989Z,13.40
2018-05-09T02:09:05.739Z,13.30
2018-05-09T02:11:33.424Z,13.20
2018-05-09T02:14:01.134Z,13.10
2018-05-09T02:16:29.629Z,13.10
2018-05-09T02:18:58.095Z,13.10
2018-05-09T02:21:25.792Z,13.10
2018-05-09T02:23:53.512Z,13.10
2018-05-09T02:26:21.213Z,13.00
2018-05-09T02:28:48.903Z,13.00
2018-05-09T02:31:16.711Z,12.90
2018-05-09T02:33:44.434Z,12.90
2018-05-09T02:36:12.140Z,12.80
2018-05-09T02:38:39.831Z,12.80
2018-05-09T02:41:07.529Z,12.80
2018-05-09T02:43:35.280Z,12.70
2018-05-09T02:46:02.944Z,12.70
2018-05-09T02:48:30.623Z,12.80
2018-05-09T02:50:58.380Z,12.70
2018-05-09T02:53:26.084Z,12.70
2018-05-09T02:55:53.791Z,12.70
2018-05-09T02:58:21.471Z,12.60
2018-05-09T03:00:49.188Z,12.70
2018-05-09T03:03:17.652Z,12.60
2018-05-09T03:05:45.352Z,12.60
2018-05-09T03:08:13.821Z,12.60
2018-05-09T03:10:41.569Z,12.50
2018-05-09T03:13:09.271Z,12.60
2018-05-09T03:15:37.074Z,12.60
2018-05-09T03:18:04.828Z,12.70
2018-05-09T03:20:32.644Z,12.70
2018-05-09T03:23:01.007Z,12.70
2018-05-09T03:25:28.731Z,12.70
2018-05-09T03:27:56.401Z,12.70
2018-05-09T03:30:24.148Z,12.60
2018-05-09T03:32:51.851Z,12.60
2018-05-09T03:35:19.572Z,12.60
2018-05-09T03:37:47.256Z,12.50
2018-05-09T03:40:15.013Z,12.50
2018-05-09T03:42:42.696Z,12.60
2018-05-09T03:45:10.404Z,12.60
2018-05-09T03:47:38.093Z,12.60
2018-05-09T03:50:05.787Z,12.50
2018-05-09T03:52:33.515Z,12.50
2018-05-09T03:55:01.215Z,12.50
2018-05-09T03:57:29.016Z,12.50
2018-05-09T03:59:56.714Z,12.50
2018-05-09T04:02:37.193Z,12.50
2018-05-09T04:05:10.847Z,12.50
2018-05-09T04:07:44.421Z,12.50
2018-05-09T04:10:12.109Z,12.60
2018-05-09T04:12:39.848Z,12.60
2018-05-09T04:15:07.554Z,12.70
2018-05-09T04:17:35.262Z,12.80
2018-05-09T04:20:02.956Z,12.70
2018-05-09T04:22:30.683Z,12.70
2018-05-09T04:24:58.383Z,12.70
2018-05-09T04:27:26.106Z,12.60
2018-05-09T04:29:54.745Z,12.80
2018-05-09T04:32:22.454Z,13.40
2018-05-09T04:34:50.144Z,14.20
2018-05-09T04:37:17.878Z,15.10
2018-05-09T04:39:46.317Z,16.30
2018-05-09T04:42:14.031Z,16.30
2018-05-09T04:44:41.740Z,16.90
2018-05-09T04:47:09.451Z,17.40
2018-05-09T04:49:37.153Z,18.10
2018-05-09T04:52:04.899Z,18.80
2018-05-09T04:54:32.581Z,19.50
2018-05-09T04:57:00.360Z,20.30
2018-05-09T04:59:28.065Z,20.60
2018-05-09T05:01:55.880Z,20.50
2018-05-09T05:04:23.590Z,20.40
2018-05-09T05:06:52.486Z,19.80
2018-05-09T05:09:20.177Z,19.50
2018-05-09T05:11:47.900Z,19.00
2018-05-09T05:14:15.674Z,18.90
2018-05-09T05:16:43.395Z,18.70
2018-05-09T05:19:11.100Z,18.50
2018-05-09T05:21:39.634Z,17.10
2018-05-09T05:24:07.349Z,17.10
2018-05-09T05:26:35.102Z,16.60
2018-05-09T05:29:02.845Z,16.40
2018-05-09T05:31:30.521Z,16.50
2018-05-09T05:33:58.381Z,16.40
2018-05-09T05:36:26.538Z,16.40
2018-05-09T05:38:54.282Z,16.40
2018-05-09T05:41:22.686Z,16.50
2018-05-09T05:43:50.489Z,16.50
2018-05-09T05:46:18.178Z,16.50
2018-05-09T05:48:46.000Z,16.70
2018-05-09T05:51:13.678Z,16.80
2018-05-09T05:53:41.386Z,16.80
2018-05-09T05:56:09.104Z,16.90
2018-05-09T05:58:37.688Z,17.20
2018-05-09T06:01:05.396Z,17.20
2018-05-09T06:03:33.113Z,17.30
2018-05-09T06:06:00.810Z,17.40
2018-05-09T06:08:29.260Z,17.70
2018-05-09T06:10:57.740Z,17.80
2018-05-09T06:13:25.535Z,17.70
2018-05-09T06:15:53.988Z,18.00
2018-05-09T06:18:21.756Z,17.90
2018-05-09T06:20:49.479Z,18.00
2018-05-09T06:23:17.176Z,18.10
2018-05-09T06:25:46.360Z,18.20
2018-05-09T06:28:14.077Z,18.20
2018-05-09T06:30:42.308Z,18.40
2018-05-09T06:33:10.042Z,18.40
2018-05-09T06:35:37.742Z,18.50
2018-05-09T06:38:05.466Z,18.70
2018-05-09T06:40:33.230Z,18.70
2018-05-09T06:43:00.939Z,18.80
2018-05-09T06:45:28.643Z,19.00
2018-05-09T06:47:56.460Z,19.00
2018-05-09T06:50:24.597Z,19.20
2018-05-09T06:52:52.371Z,19.30
2018-05-09T06:55:20.852Z,19.50
2018-05-09T06:57:48.978Z,19.50
2018-05-09T07:00:16.711Z,19.50
2018-05-09T07:02:44.436Z,19.60
2018-05-09T07:05:12.940Z,19.80
2018-05-09T07:07:41.501Z,19.80
2018-05-09T07:10:09.249Z,19.90
2018-05-09T07:12:37.749Z,20.20
2018-05-09T07:15:05.472Z,20.20
2018-05-09T07:17:33.726Z,20.30
2018-05-09T07:20:01.445Z,20.50
2018-05-09T07:22:29.916Z,20.70
2018-05-09T07:24:58.792Z,20.90
2018-05-09T07:27:26.498Z,20.90
2018-05-09T07:29:54.961Z,21.10
2018-05-09T07:32:23.417Z,21.30
2018-05-09T07:34:51.125Z,21.30
2018-05-09T07:37:18.819Z,21.50
2018-05-09T07:39:46.640Z,21.60
2018-05-09T07:42:15.170Z,21.80
2018-05-09T07:44:43.669Z,22.00
2018-05-09T07:47:11.382Z,21.90
2018-05-09T07:49:39.951Z,22.10
2018-05-09T07:52:08.411Z,22.30
2018-05-09T07:54:36.109Z,22.30
2018-05-09T07:57:04.564Z,22.50
2018-05-09T07:59:34.352Z,22.60
2018-05-09T08:02:02.103Z,22.60
2018-05-09T08:04:29.811Z,22.70
2018-05-09T08:06:57.567Z,22.80
2018-05-09T08:09:25.258Z,22.90
2018-05-09T08:11:53.779Z,23.10
2018-05-09T08:14:21.477Z,23.10
2018-05-09T08:16:49.196Z,23.30
2018-05-09T08:19:16.898Z,23.40
2018-05-09T08:21:44.615Z,23.40
2018-05-09T08:24:13.139Z,23.50
2018-05-09T08:26:40.832Z,23.50
2018-05-09T08:29:09.324Z,23.70
2018-05-09T08:31:36.998Z,23.70
2018-05-09T08:34:04.677Z,23.80
2018-05-09T08:36:32.522Z,23.90
2018-05-09T08:39:01.236Z,24.10
2018-05-09T08:41:28.975Z,24.10
2018-05-09T08:43:57.518Z,24.10
2018-05-09T08:46:25.142Z,24.10
2018-05-09T08:48:53.579Z,24.20
2018-05-09T08:51:22.171Z,24.30
2018-05-09T08:53:49.821Z,24.20
2018-05-09T08:56:17.534Z,24.30
2018-05-09T08:58:45.229Z,24.40
2018-05-09T09:01:12.944Z,24.50
2018-05-09T09:03:41.439Z,24.60
2018-05-09T09:06:09.160Z,24.60
2018-05-09T09:08:36.923Z,24.70
2018-05-09T09:11:04.650Z,24.80
2018-05-09T09:13:32.371Z,24.80
2018-05-09T09:16:00.083Z,24.90
2018-05-09T09:18:27.871Z,24.90
2018-05-09T09:20:55.627Z,25.00
2018-05-09T09:23:24.079Z,25.00
2018-05-09T09:25:51.760Z,25.00
2018-05-09T09:28:19.474Z,25.00
2018-05-09T09:30:47.980Z,25.10
2018-05-09T09:33:16.463Z,25.10
2018-05-09T09:35:44.155Z,25.10
2018-05-09T09:38:13.022Z,25.20
2018-05-09T09:40:41.572Z,25.30
2018-05-09T09:43:09.262Z,25.30
2018-05-09T09:45:38.090Z,25.40
2018-05-09T09:48:05.811Z,25.40
2018-05-09T09:50:34.346Z,25.50
2018-05-09T09:53:02.032Z,25.50
2018-05-09T09:55:29.719Z,25.70
2018-05-09T09:57:58.200Z,25.90
2018-05-09T10:00:26.685Z,26.00
2018-05-09T10:02:55.161Z,26.20
2018-05-09T10:05:23.625Z,26.40
2018-05-09T10:07:51.383Z,26.30
2018-05-09T10:10:19.103Z,26.50
2018-05-09T10:12:46.820Z,26.50
2018-05-09T10:15:14.595Z,26.60
2018-05-09T10:17:44.176Z,27.10
2018-05-09T10:20:12.022Z,27.10
2018-05-09T10:22:39.744Z,27.20
2018-05-09T10:25:08.204Z,27.20
2018-05-09T10:27:35.919Z,27.20
2018-05-09T10:30:04.112Z,27.10
2018-05-09T10:32:31.949Z,27.20
2018-05-09T10:35:00.442Z,27.70
2018-05-09T10:37:28.120Z,27.70
2018-05-09T10:39:55.837Z,27.60
2018-05-09T10:42:24.315Z,27.60
2018-05-09T10:44:52.033Z,27.60
2018-05-09T10:47:19.720Z,27.70
2018-05-09T10:49:47.444Z,27.60
2018-05-09T10:52:15.162Z,27.60
2018-05-09T10:54:42.897Z,27.50
2018-05-09T10:57:10.689Z,27.50
2018-05-09T10:59:39.119Z,27.70
2018-05-09T11:02:07.171Z,27.70
2018-05-09T11:04:35.615Z,28.20
2018-05-09T11:07:03.337Z,28.10
2018-05-09T11:09:31.077Z,28.20
2018-05-09T11:11:58.758Z,28.30
2018-05-09T11:14:26.452Z,28.30
2018-05-09T11:16:54.503Z,28.50
2018-05-09T11:19:22.192Z,28.40
2018-05-09T11:21:49.937Z,28.40
2018-05-09T11:24:17.656Z,28.50
2018-05-09T11:26:45.381Z,28.80
2018-05-09T11:29:13.125Z,29.00
2018-05-09T11:31:41.583Z,29.00
2018-05-09T11:34:10.094Z,28.90
2018-05-09T11:36:37.914Z,28.80
2018-05-09T11:39:05.578Z,28.80
2018-05-09T11:41:33.290Z,28.60
2018-05-09T11:44:00.986Z,28.50
2018-05-09T11:46:29.046Z,28.40
2018-05-09T11:48:56.738Z,28.40
2018-05-09T11:51:24.449Z,28.30
2018-05-09T11:53:52.177Z,28.30
2018-05-09T11:56:19.897Z,28.20
2018-05-09T11:58:47.650Z,28.20
2018-05-09T12:01:16.102Z,28.00
2018-05-09T12:03:44.987Z,28.00
2018-05-09T12:06:12.684Z,27.90
2018-05-09T12:08:41.179Z,27.90
2018-05-09T12:11:08.942Z,27.90
2018-05-09T12:13:37.122Z,28.00
2018-05-09T12:16:04.931Z,28.00
2018-05-09T12:18:32.621Z,27.90
2018-05-09T12:21:01.126Z,27.90
2018-05-09T12:23:28.957Z,27.80
2018-05-09T12:25:56.670Z,27.70
2018-05-09T12:28:25.247Z,27.90
2018-05-09T12:30:52.959Z,27.80
2018-05-09T12:33:20.668Z,27.70
2018-05-09T12:35:48.682Z,27.80
2018-05-09T12:38:16.406Z,27.90
2018-05-09T12:40:44.096Z,27.90
2018-05-09T12:43:11.812Z,27.90
2018-05-09T12:45:40.275Z,27.50
2018-05-09T12:48:08.031Z,27.50
2018-05-09T12:50:35.756Z,27.50
2018-05-09T12:53:03.521Z,27.30
2018-05-09T12:55:32.076Z,27.50
2018-05-09T12:58:00.608Z,27.30
2018-05-09T13:00:28.352Z,27.20
2018-05-09T13:02:56.848Z,27.40
2018-05-09T13:05:24.551Z,27.40
2018-05-09T13:07:52.313Z,27.50
2018-05-09T13:10:19.977Z,27.80
2018-05-09T13:12:47.712Z,27.60
2018-05-09T13:15:15.403Z,27.70
2018-05-09T13:17:43.478Z,27.70
2018-05-09T13:20:11.168Z,27.70
2018-05-09T13:22:39.673Z,27.50
2018-05-09T13:25:07.382Z,27.50
2018-05-09T13:27:35.116Z,27.50
2018-05-09T13:30:02.815Z,27.50
2018-05-09T13:32:30.535Z,27.50
2018-05-09T13:34:58.290Z,27.40
2018-05-09T13:37:26.011Z,27.50
2018-05-09T13:39:53.795Z,27.50
2018-05-09T13:42:22.202Z,27.50
2018-05-09T13:44:49.929Z,27.50
2018-05-09T13:47:17.691Z,27.40
2018-05-09T13:49:46.193Z,27.30
2018-05-09T13:52:14.707Z,27.30
2018-05-09T13:54:42.449Z,27.30
2018-05-09T13:57:10.963Z,27.40
2018-05-09T13:59:38.790Z,27.40
2018-05-09T14:02:07.283Z,27.40
2018-05-09T14:04:35.792Z,27.50
2018-05-09T14:07:03.512Z,27.50
2018-05-09T14:09:32.048Z,27.50
2018-05-09T14:11:59.760Z,27.50
2018-05-09T14:14:28.283Z,27.20
2018-05-09T14:16:55.969Z,27.20
2018-05-09T14:19:23.704Z,27.20
2018-05-09T14:21:51.476Z,27.10
2018-05-09T14:24:19.219Z,27.10
2018-05-09T14:26:47.724Z,27.40
2018-05-09T14:29:15.457Z,27.40
2018-05-09T14:31:43.206Z,27.50
2018-05-09T14:34:10.959Z,27.50
2018-05-09T14:36:38.944Z,27.60
2018-05-09T14:39:06.663Z,27.60
2018-05-09T14:41:34.354Z,27.70
2018-05-09T14:44:03.095Z,28.00
2018-05-09T14:46:30.845Z,27.90
2018-05-09T14:48:58.556Z,28.10
2018-05-09T14:51:26.272Z,28.30
2018-05-09T14:53:54.798Z,28.70
2018-05-09T14:56:22.521Z,28.70
2018-05-09T14:58:50.268Z,28.70
2018-05-09T15:01:19.062Z,29.00
2018-05-09T15:03:46.906Z,28.90
2018-05-09T15:06:15.140Z,28.80
2018-05-09T15:08:42.875Z,28.80
2018-05-09T15:11:11.369Z,28.70
2018-05-09T15:13:39.083Z,28.70
2018-05-09T15:16:06.909Z,28.50
2018-05-09T15:18:34.600Z,28.20
2018-05-09T15:21:02.494Z,28.30
2018-05-09T15:23:30.183Z,28.40
2018-05-09T15:25:57.924Z,28.50
2018-05-09T15:28:26.311Z,28.40
2018-05-09T15:30:54.013Z,28.40
2018-05-09T15:33:22.458Z,28.70
2018-05-09T15:35:51.116Z,28.70
2018-05-09T15:38:18.829Z,28.70
2018-05-09T15:40:46.573Z,28.70
2018-05-09T15:43:15.128Z,28.80
2018-05-09T15:45:42.876Z,28.80
2018-05-09T15:48:10.577Z,28.70
2018-05-09T15:50:39.120Z,28.70
2018-05-09T15:53:06.832Z,28.70
2018-05-09T15:55:35.014Z,28.60
2018-05-09T15:58:02.774Z,28.10
2018-05-09T16:00:32.087Z,27.90
2018-05-09T16:02:59.879Z,27.90
2018-05-09T16:05:27.685Z,27.90
2018-05-09T16:07:55.397Z,27.90
2018-05-09T16:10:23.981Z,27.60
2018-05-09T16:12:51.683Z,27.60
2018-05-09T16:15:20.186Z,27.50
2018-05-09T16:17:47.985Z,27.40
2018-05-09T16:20:16.528Z,27.30
2018-05-09T16:22:44.315Z,27.30
2018-05-09T16:25:12.021Z,27.10
2018-05-09T16:27:40.480Z,27.10
2018-05-09T16:30:08.323Z,27.10
2018-05-09T16:32:36.285Z,27.00
2018-05-09T16:35:04.070Z,26.80
2018-05-09T16:37:31.807Z,26.80
2018-05-09T16:39:59.635Z,26.80
2018-05-09T16:42:27.408Z,26.80
2018-05-09T16:44:55.098Z,26.80
2018-05-09T16:47:22.876Z,26.50
2018-05-09T16:49:50.709Z,26.20
2018-05-09T16:52:19.862Z,25.90
2018-05-09T16:54:47.751Z,25.70
2018-05-09T16:57:15.608Z,25.50
2018-05-09T16:59:44.105Z,25.30
2018-05-09T17:02:12.600Z,25.20
2018-05-09T17:04:43.054Z,25.10
2018-05-09T17:07:10.919Z,25.10
2018-05-09T17:09:39.113Z,25.00
2018-05-09T17:12:06.914Z,25.00
2018-05-09T17:14:45.337Z,24.90
2018-05-09T17:17:13.150Z,24.90
2018-05-09T17:19:40.934Z,24.90
2018-05-09T17:22:21.418Z,25.00
2018-05-09T17:24:49.817Z,25.00
2018-05-09T17:27:17.507Z,24.90
2018-05-09T17:29:45.861Z,24.80
2018-05-09T17:32:14.410Z,24.70
2018-05-09T17:34:42.965Z,24.60
2018-05-09T17:37:11.857Z,24.50
2018-05-09T17:39:39.814Z,24.40
2018-05-09T17:42:07.533Z,24.30
2018-05-09T17:44:35.267Z,24.20
2018-05-09T17:47:02.987Z,24.30
2018-05-09T17:49:32.149Z,24.00
2018-05-09T17:58:48.726Z,23.60
2018-05-09T18:01:17.139Z,23.40
2018-05-09T18:03:44.906Z,23.40
2018-05-09T18:06:13.014Z,23.30
2018-05-09T18:08:40.972Z,23.30
2018-05-09T18:11:08.656Z,23.30
2018-05-09T18:13:36.442Z,23.30
2018-05-09T18:16:04.144Z,23.30
2018-05-09T18:18:31.921Z,23.30
2018-05-09T18:20:59.973Z,23.40
2018-05-09T18:23:28.472Z,23.30
2018-05-09T18:25:56.260Z,23.30
2018-05-09T18:28:24.361Z,23.20
2018-05-09T18:30:52.030Z,23.20
2018-05-09T18:33:19.898Z,23.10
2018-05-09T18:35:47.614Z,23.00
2018-05-09T18:38:15.367Z,22.90
2018-05-09T18:40:43.843Z,22.70
2018-05-09T18:43:12.340Z,22.50
2018-05-09T18:45:40.153Z,22.50
2018-05-09T18:48:07.875Z,22.50
2018-05-09T18:50:35.634Z,22.40
2018-05-09T18:53:03.403Z,22.40
2018-05-09T18:55:31.875Z,22.30
2018-05-09T18:58:00.374Z,22.30
2018-05-09T19:00:28.114Z,22.20
2018-05-09T19:02:55.828Z,22.30
2018-05-09T19:05:23.816Z,22.20
2018-05-09T19:07:51.991Z,22.10
2018-05-09T19:10:19.705Z,21.90
2018-05-09T19:12:47.527Z,21.70
2018-05-09T19:15:17.329Z,21.50
2018-05-09T19:17:47.836Z,21.40
2018-05-09T19:20:15.729Z,21.40
2018-05-09T19:22:44.182Z,21.40
2018-05-09T19:25:13.035Z,21.40
2018-05-09T19:27:41.951Z,21.40
2018-05-09T19:30:10.182Z,21.30
2018-05-09T19:32:39.911Z,21.10
2018-05-09T19:35:08.592Z,21.00
2018-05-09T19:37:38.027Z,20.80
2018-05-09T19:40:08.517Z,20.70
2018-05-09T19:42:37.079Z,20.50
2018-05-09T19:45:05.633Z,20.50
2018-05-09T19:47:33.806Z,20.50
2018-05-09T19:50:02.343Z,20.40
2018-05-09T19:52:30.821Z,20.30
2018-05-09T19:55:00.328Z,20.20
2018-05-09T19:57:29.832Z,20.10
2018-05-09T20:00:00.219Z,19.90
2018-05-09T20:02:30.225Z,19.90
2018-05-09T20:05:00.728Z,19.70
2018-05-09T20:07:29.706Z,19.60
2018-05-09T20:09:59.404Z,19.60
2018-05-09T20:12:27.641Z,19.50
2018-05-09T20:14:56.969Z,19.40
2018-05-09T20:17:25.090Z,19.30
2018-05-09T20:19:53.646Z,19.20
2018-05-09T20:22:22.822Z,19.10
2018-05-09T20:24:51.851Z,19.10
2018-05-09T20:27:19.599Z,19.00
2018-05-09T20:29:47.791Z,18.90
2018-05-09T20:32:23.870Z,18.90
2018-05-09T20:34:52.868Z,18.80
2018-05-09T20:37:21.032Z,18.70
2018-05-09T20:39:50.283Z,18.70
2018-05-09T20:42:19.218Z,18.60
2018-05-09T20:44:51.761Z,18.60
2018-05-09T20:47:19.859Z,18.50
2018-05-09T20:49:48.139Z,18.40
2018-05-09T20:52:19.894Z,18.40
2018-05-09T20:54:47.709Z,18.40
2018-05-09T20:57:16.287Z,18.20
2018-05-09T20:59:44.058Z,18.20
2018-05-09T21:02:11.786Z,18.20
2018-05-09T21:04:39.503Z,18.10
2018-05-09T21:07:07.251Z,18.20
2018-05-09T21:09:34.991Z,18.20
2018-05-09T21:12:09.309Z,18.00
2018-05-09T21:14:37.034Z,18.00
2018-05-09T21:17:04.817Z,18.00
2018-05-09T21:19:32.518Z,17.90
2018-05-09T21:22:00.248Z,17.90
2018-05-09T21:24:27.999Z,17.90
2018-05-09T21:26:55.968Z,17.80
2018-05-09T21:29:24.524Z,17.50
2018-05-09T21:31:52.265Z,17.50
2018-05-09T21:34:20.029Z,17.60
2018-05-09T21:36:47.835Z,17.60
2018-05-09T21:39:15.525Z,17.60
2018-05-09T21:41:43.300Z,17.50
2018-05-09T21:44:11.020Z,17.40
2018-05-09T21:46:38.749Z,17.40
2018-05-09T21:49:07.220Z,17.20
2018-05-09T21:51:35.795Z,17.10
2018-05-09T21:54:03.477Z,17.10
2018-05-09T21:56:31.204Z,17.00
2018-05-09T21:58:58.930Z,17.00
2018-05-09T22:01:27.429Z,16.90
2018-05-09T22:03:55.136Z,16.90
2018-05-09T22:06:23.236Z,16.80
2018-05-09T22:08:51.693Z,16.70
2018-05-09T22:11:20.232Z,16.70
2018-05-09T22:13:48.241Z,16.60
2018-05-09T22:16:15.926Z,16.70
2018-05-09T22:18:44.381Z,16.80
2018-05-09T22:21:12.122Z,16.80
2018-05-09T22:23:39.846Z,16.70
2018-05-09T22:26:08.492Z,16.60
2018-05-09T22:28:36.917Z,16.50
2018-05-09T22:31:04.647Z,16.70
2018-05-09T22:33:32.429Z,16.80
2018-05-09T22:36:00.133Z,16.70
2018-05-09T22:38:27.851Z,16.60
2018-05-09T22:40:56.348Z,16.50
2018-05-09T22:43:24.809Z,16.50
2018-05-09T22:45:52.622Z,16.50
2018-05-09T22:48:20.252Z,16.50
2018-05-09T22:50:48.733Z,16.50
2018-05-09T22:53:17.216Z,16.40
2018-05-09T22:55:45.725Z,16.30
2018-05-09T22:58:13.437Z,16.30
2018-05-09T23:00:41.155Z,16.30
2018-05-09T23:03:08.976Z,16.30
2018-05-09T23:05:36.704Z,16.20
2018-05-09T23:08:04.422Z,16.20
2018-05-09T23:10:32.189Z,16.30
2018-05-09T23:12:59.881Z,16.20
2018-05-09T23:15:27.598Z,16.20
2018-05-09T23:17:55.318Z,16.20
2018-05-09T23:20:23.129Z,16.10
2018-05-09T23:22:50.832Z,16.10
2018-05-09T23:25:19.305Z,16.00
2018-05-09T23:27:47.839Z,16.00
2018-05-09T23:30:16.251Z,16.00
2018-05-09T23:32:43.943Z,16.00
2018-05-09T23:35:11.655Z,16.10
2018-05-09T23:37:39.397Z,16.10
2018-05-09T23:40:07.157Z,16.10
2018-05-09T23:42:34.897Z,16.00
2018-05-09T23:45:03.377Z,16.00
2018-05-09T23:47:31.848Z,15.90
2018-05-09T23:50:00.298Z,16.00
2018-05-09T23:52:28.009Z,15.90
2018-05-09T23:54:55.757Z,15.90
2018-05-09T23:57:23.470Z,15.90
2018-05-09T23:59:51.163Z,15.80
